sensor_id;sensor_type;location;lat;lon;timestamp;temperature;humidity
29725;DHT22;16636;48.394;15.468;2022-12-11T00:00:20;2.50;99.90
29725;DHT22;16636;48.394;15.468;2022-12-11T00:02:47;2.50;99.90
29725;DHT22;16636;48.394;15.468;2022-12-11T00:05:14;2.50;99.90
29725;DHT22;16636;48.394;15.468;2022-12-11T00:07:40;2.40;99.90
29725;DHT22;16636;48.394;15.468;2022-12-11T00:10:06;2.40;99.90
29725;DHT22;16636;48.394;15.468;2022-12-11T00:12:33;2.40;99.90
29725;DHT22;16636;48.394;15.468;2022-12-11T00:14:59;2.40;99.90
29725;DHT22;16636;48.394;15.468;2022-12-11T00:17:25;2.40;99.90
29725;DHT22;16636;48.394;15.468;2022-12-11T00:19:51;2.40;99.90
29725;DHT22;16636;48.394;15.468;2022-12-11T00:22:17;2.40;99.90
29725;DHT22;16636;48.394;15.468;2022-12-11T00:24:43;2.40;99.90
29725;DHT22;16636;48.394;15.468;2022-12-11T00:27:09;2.40;99.90
29725;DHT22;16636;48.394;15.468;2022-12-11T00:29:34;2.40;99.90
29725;DHT22;16636;48.394;15.468;2022-12-11T00:32:01;2.30;99.90
29725;DHT22;16636;48.394;15.468;2022-12-11T00:34:27;2.30;99.90
29725;DHT22;16636;48.394;15.468;2022-12-11T00:36:53;2.30;99.90
29725;DHT22;16636;48.394;15.468;2022-12-11T00:39:19;2.30;99.90
29725;DHT22;16636;48.394;15.468;2022-12-11T00:41:45;2.30;99.90
29725;DHT22;16636;48.394;15.468;2022-12-11T00:44:11;2.30;99.90
29725;DHT22;16636;48.394;15.468;2022-12-11T00:46:37;2.30;99.90
29725;DHT22;16636;48.394;15.468;2022-12-11T00:49:03;2.30;99.90
29725;DHT22;16636;48.394;15.468;2022-12-11T00:51:29;2.30;99.90
29725;DHT22;16636;48.394;15.468;2022-12-11T00:53:55;2.20;99.90
29725;DHT22;16636;48.394;15.468;2022-12-11T00:56:22;2.20;99.90
29725;DHT22;16636;48.394;15.468;2022-12-11T00:58:48;2.20;99.90
29725;DHT22;16636;48.394;15.468;2022-12-11T01:01:21;2.20;99.90
29725;DHT22;16636;48.394;15.468;2022-12-11T01:03:48;2.20;99.90
29725;DHT22;16636;48.394;15.468;2022-12-11T01:06:17;2.20;99.90
29725;DHT22;16636;48.394;15.468;2022-12-11T01:08:45;2.20;99.90
29725;DHT22;16636;48.394;15.468;2022-12-11T01:11:14;2.20;99.90
29725;DHT22;16636;48.394;15.468;2022-12-11T01:13:41;2.20;99.90
29725;DHT22;16636;48.394;15.468;2022-12-11T01:16:14;2.20;99.90
29725;DHT22;16636;48.394;15.468;2022-12-11T01:18:41;2.20;99.90
29725;DHT22;16636;48.394;15.468;2022-12-11T01:21:08;2.10;99.90
29725;DHT22;16636;48.394;15.468;2022-12-11T01:23:35;2.10;99.90
29725;DHT22;16636;48.394;15.468;2022-12-11T01:26:09;2.10;99.90
29725;DHT22;16636;48.394;15.468;2022-12-11T01:28:36;2.10;99.90
29725;DHT22;16636;48.394;15.468;2022-12-11T01:31:02;2.10;99.90
29725;DHT22;16636;48.394;15.468;2022-12-11T01:33:32;2.10;99.90
29725;DHT22;16636;48.394;15.468;2022-12-11T01:35:58;2.10;99.90
29725;DHT22;16636;48.394;15.468;2022-12-11T01:38:24;2.10;99.90
29725;DHT22;16636;48.394;15.468;2022-12-11T01:40:50;2.10;99.90
29725;DHT22;16636;48.394;15.468;2022-12-11T01:43:17;2.10;99.90
29725;DHT22;16636;48.394;15.468;2022-12-11T01:45:46;2.10;99.90
29725;DHT22;16636;48.394;15.468;2022-12-11T01:48:31;2.10;99.90
29725;DHT22;16636;48.394;15.468;2022-12-11T01:51:01;2.10;99.90
29725;DHT22;16636;48.394;15.468;2022-12-11T01:53:34;2.10;99.90
29725;DHT22;16636;48.394;15.468;2022-12-11T01:56:02;2.00;99.90
29725;DHT22;16636;48.394;15.468;2022-12-11T01:58:31;2.00;99.90
29725;DHT22;16636;48.394;15.468;2022-12-11T02:00:59;1.90;99.90
29725;DHT22;16636;48.394;15.468;2022-12-11T02:03:25;1.90;99.90
29725;DHT22;16636;48.394;15.468;2022-12-11T02:05:51;1.90;99.90
29725;DHT22;16636;48.394;15.468;2022-12-11T02:08:18;1.90;99.90
29725;DHT22;16636;48.394;15.468;2022-12-11T02:13:31;1.90;99.90
29725;DHT22;16636;48.394;15.468;2022-12-11T02:16:30;1.90;99.90
29725;DHT22;16636;48.394;15.468;2022-12-11T02:21:52;1.90;99.90
29725;DHT22;16636;48.394;15.468;2022-12-11T02:24:26;1.90;99.90
29725;DHT22;16636;48.394;15.468;2022-12-11T02:29:38;1.90;99.90
29725;DHT22;16636;48.394;15.468;2022-12-11T02:32:18;1.90;99.90
29725;DHT22;16636;48.394;15.468;2022-12-11T02:37:30;1.90;99.90
29725;DHT22;16636;48.394;15.468;2022-12-11T02:39:57;2.00;99.90
29725;DHT22;16636;48.394;15.468;2022-12-11T02:42:28;1.90;99.90
29725;DHT22;16636;48.394;15.468;2022-12-11T02:44:57;1.90;99.90
29725;DHT22;16636;48.394;15.468;2022-12-11T02:47:26;1.90;99.90
29725;DHT22;16636;48.394;15.468;2022-12-11T02:49:55;1.90;99.90
29725;DHT22;16636;48.394;15.468;2022-12-11T02:52:24;1.90;99.90
29725;DHT22;16636;48.394;15.468;2022-12-11T02:54:53;1.90;99.90
29725;DHT22;16636;48.394;15.468;2022-12-11T02:57:37;1.90;99.90
29725;DHT22;16636;48.394;15.468;2022-12-11T03:00:05;1.90;99.90
29725;DHT22;16636;48.394;15.468;2022-12-11T03:02:31;2.00;99.90
29725;DHT22;16636;48.394;15.468;2022-12-11T03:04:58;1.90;99.90
29725;DHT22;16636;48.394;15.468;2022-12-11T03:07:30;1.90;99.90
29725;DHT22;16636;48.394;15.468;2022-12-11T03:09:57;1.90;99.90
29725;DHT22;16636;48.394;15.468;2022-12-11T03:12:28;1.90;99.90
29725;DHT22;16636;48.394;15.468;2022-12-11T03:15:01;1.90;99.90
29725;DHT22;16636;48.394;15.468;2022-12-11T03:22:38;1.90;99.90
29725;DHT22;16636;48.394;15.468;2022-12-11T03:25:06;1.80;99.90
29725;DHT22;16636;48.394;15.468;2022-12-11T03:27:41;1.80;99.90
29725;DHT22;16636;48.394;15.468;2022-12-11T03:30:13;1.80;99.90
29725;DHT22;16636;48.394;15.468;2022-12-11T03:32:47;1.80;99.90
29725;DHT22;16636;48.394;15.468;2022-12-11T03:36:00;1.80;99.90
29725;DHT22;16636;48.394;15.468;2022-12-11T03:38:23;1.80;99.90
29725;DHT22;16636;48.394;15.468;2022-12-11T03:40:53;1.80;99.90
29725;DHT22;16636;48.394;15.468;2022-12-11T03:43:21;1.80;99.90
29725;DHT22;16636;48.394;15.468;2022-12-11T03:45:48;1.80;99.90
29725;DHT22;16636;48.394;15.468;2022-12-11T03:48:16;1.80;99.90
29725;DHT22;16636;48.394;15.468;2022-12-11T03:50:44;1.70;99.90
29725;DHT22;16636;48.394;15.468;2022-12-11T03:53:11;1.70;99.90
29725;DHT22;16636;48.394;15.468;2022-12-11T03:55:39;1.70;99.90
29725;DHT22;16636;48.394;15.468;2022-12-11T03:58:05;1.80;99.90
29725;DHT22;16636;48.394;15.468;2022-12-11T04:00:31;1.80;99.90
29725;DHT22;16636;48.394;15.468;2022-12-11T04:02:57;1.70;99.90
29725;DHT22;16636;48.394;15.468;2022-12-11T04:05:43;1.70;99.90
29725;DHT22;16636;48.394;15.468;2022-12-11T04:08:10;1.70;99.90
29725;DHT22;16636;48.394;15.468;2022-12-11T04:10:36;1.70;99.90
29725;DHT22;16636;48.394;15.468;2022-12-11T04:13:02;1.70;99.90
29725;DHT22;16636;48.394;15.468;2022-12-11T04:15:28;1.70;99.90
29725;DHT22;16636;48.394;15.468;2022-12-11T04:17:54;1.70;99.90
29725;DHT22;16636;48.394;15.468;2022-12-11T04:20:38;1.70;99.90
29725;DHT22;16636;48.394;15.468;2022-12-11T04:23:22;1.70;99.90
29725;DHT22;16636;48.394;15.468;2022-12-11T04:26:10;1.70;99.90
29725;DHT22;16636;48.394;15.468;2022-12-11T04:28:37;1.70;99.90
29725;DHT22;16636;48.394;15.468;2022-12-11T04:31:04;1.70;99.90
29725;DHT22;16636;48.394;15.468;2022-12-11T04:33:30;1.70;99.90
29725;DHT22;16636;48.394;15.468;2022-12-11T04:35:58;1.70;99.90
29725;DHT22;16636;48.394;15.468;2022-12-11T04:38:24;1.70;99.90
29725;DHT22;16636;48.394;15.468;2022-12-11T04:40:57;1.70;99.90
29725;DHT22;16636;48.394;15.468;2022-12-11T04:43:23;1.70;99.90
29725;DHT22;16636;48.394;15.468;2022-12-11T04:45:49;1.70;99.90
29725;DHT22;16636;48.394;15.468;2022-12-11T04:48:15;1.60;99.90
29725;DHT22;16636;48.394;15.468;2022-12-11T04:50:41;1.60;99.90
29725;DHT22;16636;48.394;15.468;2022-12-11T04:53:07;1.60;99.90
29725;DHT22;16636;48.394;15.468;2022-12-11T04:55:33;1.60;99.90
29725;DHT22;16636;48.394;15.468;2022-12-11T04:57:59;1.60;99.90
29725;DHT22;16636;48.394;15.468;2022-12-11T05:00:25;1.60;99.90
29725;DHT22;16636;48.394;15.468;2022-12-11T05:02:52;1.60;99.90
29725;DHT22;16636;48.394;15.468;2022-12-11T05:05:18;1.60;99.90
29725;DHT22;16636;48.394;15.468;2022-12-11T05:07:44;1.50;99.90
29725;DHT22;16636;48.394;15.468;2022-12-11T05:10:10;1.50;99.90
29725;DHT22;16636;48.394;15.468;2022-12-11T05:12:36;1.50;99.90
29725;DHT22;16636;48.394;15.468;2022-12-11T05:15:02;1.50;99.90
29725;DHT22;16636;48.394;15.468;2022-12-11T05:17:28;1.50;99.90
29725;DHT22;16636;48.394;15.468;2022-12-11T05:19:54;1.50;99.90
29725;DHT22;16636;48.394;15.468;2022-12-11T05:22:20;1.50;99.90
29725;DHT22;16636;48.394;15.468;2022-12-11T05:24:46;1.50;99.90
29725;DHT22;16636;48.394;15.468;2022-12-11T05:27:12;1.50;99.90
29725;DHT22;16636;48.394;15.468;2022-12-11T05:29:39;1.50;99.90
29725;DHT22;16636;48.394;15.468;2022-12-11T05:32:06;1.50;99.90
29725;DHT22;16636;48.394;15.468;2022-12-11T05:34:32;1.40;99.90
29725;DHT22;16636;48.394;15.468;2022-12-11T05:36:58;1.40;99.90
29725;DHT22;16636;48.394;15.468;2022-12-11T05:39:24;1.40;99.90
29725;DHT22;16636;48.394;15.468;2022-12-11T05:41:50;1.40;99.90
29725;DHT22;16636;48.394;15.468;2022-12-11T05:44:17;1.40;99.90
29725;DHT22;16636;48.394;15.468;2022-12-11T05:46:42;1.40;99.90
29725;DHT22;16636;48.394;15.468;2022-12-11T05:49:09;1.40;99.90
29725;DHT22;16636;48.394;15.468;2022-12-11T05:51:35;1.50;99.90
29725;DHT22;16636;48.394;15.468;2022-12-11T05:54:02;1.50;99.90
29725;DHT22;16636;48.394;15.468;2022-12-11T05:56:30;1.50;99.90
29725;DHT22;16636;48.394;15.468;2022-12-11T05:58:58;1.50;99.90
29725;DHT22;16636;48.394;15.468;2022-12-11T06:01:30;1.40;99.90
29725;DHT22;16636;48.394;15.468;2022-12-11T06:03:57;1.50;99.90
29725;DHT22;16636;48.394;15.468;2022-12-11T06:06:24;1.40;99.90
29725;DHT22;16636;48.394;15.468;2022-12-11T06:08:52;1.50;99.90
29725;DHT22;16636;48.394;15.468;2022-12-11T06:11:19;1.40;99.90
29725;DHT22;16636;48.394;15.468;2022-12-11T06:13:45;1.50;99.90
29725;DHT22;16636;48.394;15.468;2022-12-11T06:16:11;1.40;99.90
29725;DHT22;16636;48.394;15.468;2022-12-11T06:18:39;1.50;99.90
29725;DHT22;16636;48.394;15.468;2022-12-11T06:21:28;1.40;99.90
29725;DHT22;16636;48.394;15.468;2022-12-11T06:23:57;1.40;99.90
29725;DHT22;16636;48.394;15.468;2022-12-11T06:26:23;1.40;99.90
29725;DHT22;16636;48.394;15.468;2022-12-11T06:28:50;1.40;99.90
29725;DHT22;16636;48.394;15.468;2022-12-11T06:31:17;1.40;99.90
29725;DHT22;16636;48.394;15.468;2022-12-11T06:33:44;1.40;99.90
29725;DHT22;16636;48.394;15.468;2022-12-11T06:36:13;1.40;99.90
29725;DHT22;16636;48.394;15.468;2022-12-11T06:38:40;1.40;99.90
29725;DHT22;16636;48.394;15.468;2022-12-11T06:41:07;1.40;99.90
29725;DHT22;16636;48.394;15.468;2022-12-11T06:43:36;1.40;99.90
29725;DHT22;16636;48.394;15.468;2022-12-11T06:46:04;1.40;99.90
29725;DHT22;16636;48.394;15.468;2022-12-11T06:48:30;1.40;99.90
29725;DHT22;16636;48.394;15.468;2022-12-11T06:50:57;1.40;99.90
29725;DHT22;16636;48.394;15.468;2022-12-11T06:53:23;1.40;99.90
29725;DHT22;16636;48.394;15.468;2022-12-11T06:55:49;1.40;99.90
29725;DHT22;16636;48.394;15.468;2022-12-11T06:58:15;1.40;99.90
29725;DHT22;16636;48.394;15.468;2022-12-11T07:00:41;1.40;99.90
29725;DHT22;16636;48.394;15.468;2022-12-11T07:03:08;1.40;99.90
29725;DHT22;16636;48.394;15.468;2022-12-11T07:05:34;1.40;99.90
29725;DHT22;16636;48.394;15.468;2022-12-11T07:08:00;1.40;99.90
29725;DHT22;16636;48.394;15.468;2022-12-11T07:10:28;1.40;99.90
29725;DHT22;16636;48.394;15.468;2022-12-11T07:12:54;1.40;99.90
29725;DHT22;16636;48.394;15.468;2022-12-11T07:15:20;1.40;99.90
29725;DHT22;16636;48.394;15.468;2022-12-11T07:17:46;1.40;99.90
29725;DHT22;16636;48.394;15.468;2022-12-11T07:20:13;1.40;99.90
29725;DHT22;16636;48.394;15.468;2022-12-11T07:22:39;1.30;99.90
29725;DHT22;16636;48.394;15.468;2022-12-11T07:25:05;1.30;99.90
29725;DHT22;16636;48.394;15.468;2022-12-11T07:27:31;1.30;99.90
29725;DHT22;16636;48.394;15.468;2022-12-11T07:29:57;1.30;99.90
29725;DHT22;16636;48.394;15.468;2022-12-11T07:32:24;1.30;99.90
29725;DHT22;16636;48.394;15.468;2022-12-11T07:34:50;1.30;99.90
29725;DHT22;16636;48.394;15.468;2022-12-11T07:37:17;1.30;99.90
29725;DHT22;16636;48.394;15.468;2022-12-11T07:39:43;1.30;99.90
29725;DHT22;16636;48.394;15.468;2022-12-11T07:42:09;1.30;99.90
29725;DHT22;16636;48.394;15.468;2022-12-11T07:44:34;1.30;99.90
29725;DHT22;16636;48.394;15.468;2022-12-11T07:47:00;1.30;99.90
29725;DHT22;16636;48.394;15.468;2022-12-11T07:49:27;1.30;99.90
29725;DHT22;16636;48.394;15.468;2022-12-11T07:51:53;1.30;99.90
29725;DHT22;16636;48.394;15.468;2022-12-11T07:54:19;1.40;99.90
29725;DHT22;16636;48.394;15.468;2022-12-11T07:56:46;1.40;99.90
29725;DHT22;16636;48.394;15.468;2022-12-11T07:59:13;1.40;99.90
29725;DHT22;16636;48.394;15.468;2022-12-11T08:01:39;1.40;99.90
29725;DHT22;16636;48.394;15.468;2022-12-11T08:04:09;1.40;99.90
29725;DHT22;16636;48.394;15.468;2022-12-11T08:06:37;1.30;99.90
29725;DHT22;16636;48.394;15.468;2022-12-11T08:09:06;1.40;99.90
29725;DHT22;16636;48.394;15.468;2022-12-11T08:11:33;1.30;99.90
29725;DHT22;16636;48.394;15.468;2022-12-11T08:14:01;1.30;99.90
29725;DHT22;16636;48.394;15.468;2022-12-11T08:16:27;1.30;99.90
29725;DHT22;16636;48.394;15.468;2022-12-11T08:18:54;1.30;99.90
29725;DHT22;16636;48.394;15.468;2022-12-11T08:21:25;1.30;99.90
29725;DHT22;16636;48.394;15.468;2022-12-11T08:23:52;1.30;99.90
29725;DHT22;16636;48.394;15.468;2022-12-11T08:26:24;1.40;99.90
29725;DHT22;16636;48.394;15.468;2022-12-11T08:28:51;1.40;99.90
29725;DHT22;16636;48.394;15.468;2022-12-11T08:31:18;1.40;99.90
29725;DHT22;16636;48.394;15.468;2022-12-11T08:33:45;1.40;99.90
29725;DHT22;16636;48.394;15.468;2022-12-11T08:36:15;1.40;99.90
29725;DHT22;16636;48.394;15.468;2022-12-11T08:38:42;1.50;99.90
29725;DHT22;16636;48.394;15.468;2022-12-11T08:43:34;1.50;99.90
29725;DHT22;16636;48.394;15.468;2022-12-11T08:46:00;1.60;99.90
29725;DHT22;16636;48.394;15.468;2022-12-11T08:48:26;1.60;99.90
29725;DHT22;16636;48.394;15.468;2022-12-11T08:50:52;1.70;99.90
29725;DHT22;16636;48.394;15.468;2022-12-11T08:53:18;1.60;99.90
29725;DHT22;16636;48.394;15.468;2022-12-11T08:55:44;1.70;99.90
29725;DHT22;16636;48.394;15.468;2022-12-11T08:58:10;1.70;99.90
29725;DHT22;16636;48.394;15.468;2022-12-11T09:00:36;1.70;99.90
29725;DHT22;16636;48.394;15.468;2022-12-11T09:03:02;1.70;99.90
29725;DHT22;16636;48.394;15.468;2022-12-11T09:05:30;1.60;99.90
29725;DHT22;16636;48.394;15.468;2022-12-11T09:07:57;1.70;99.90
29725;DHT22;16636;48.394;15.468;2022-12-11T09:10:23;1.70;99.90
29725;DHT22;16636;48.394;15.468;2022-12-11T09:12:49;1.70;99.90
29725;DHT22;16636;48.394;15.468;2022-12-11T09:15:15;1.70;99.90
29725;DHT22;16636;48.394;15.468;2022-12-11T09:17:41;1.70;99.90
29725;DHT22;16636;48.394;15.468;2022-12-11T09:20:07;1.80;99.90
29725;DHT22;16636;48.394;15.468;2022-12-11T09:22:33;1.80;99.90
29725;DHT22;16636;48.394;15.468;2022-12-11T09:24:59;1.80;99.90
29725;DHT22;16636;48.394;15.468;2022-12-11T09:27:26;1.90;99.90
29725;DHT22;16636;48.394;15.468;2022-12-11T09:29:52;1.90;99.90
29725;DHT22;16636;48.394;15.468;2022-12-11T09:32:18;1.90;99.90
29725;DHT22;16636;48.394;15.468;2022-12-11T09:34:44;1.80;99.90
29725;DHT22;16636;48.394;15.468;2022-12-11T09:37:10;1.80;99.90
29725;DHT22;16636;48.394;15.468;2022-12-11T09:39:36;1.80;99.90
29725;DHT22;16636;48.394;15.468;2022-12-11T09:44:56;1.80;99.90
29725;DHT22;16636;48.394;15.468;2022-12-11T09:47:35;1.70;99.90
29725;DHT22;16636;48.394;15.468;2022-12-11T09:52:48;1.70;99.90
29725;DHT22;16636;48.394;15.468;2022-12-11T09:55:22;1.70;99.90
29725;DHT22;16636;48.394;15.468;2022-12-11T10:17:05;1.80;99.90
29725;DHT22;16636;48.394;15.468;2022-12-11T10:19:32;1.80;99.90
29725;DHT22;16636;48.394;15.468;2022-12-11T10:22:00;1.80;99.90
29725;DHT22;16636;48.394;15.468;2022-12-11T10:24:36;1.80;99.90
29725;DHT22;16636;48.394;15.468;2022-12-11T10:27:20;1.80;99.90
29725;DHT22;16636;48.394;15.468;2022-12-11T10:29:50;1.80;99.90
29725;DHT22;16636;48.394;15.468;2022-12-11T10:32:23;1.80;99.90
29725;DHT22;16636;48.394;15.468;2022-12-11T10:35:03;1.80;99.90
29725;DHT22;16636;48.394;15.468;2022-12-11T10:37:30;1.80;99.90
29725;DHT22;16636;48.394;15.468;2022-12-11T10:39:56;1.80;99.90
29725;DHT22;16636;48.394;15.468;2022-12-11T10:42:23;1.80;99.90
29725;DHT22;16636;48.394;15.468;2022-12-11T10:45:00;1.70;99.90
29725;DHT22;16636;48.394;15.468;2022-12-11T10:47:27;1.80;99.90
29725;DHT22;16636;48.394;15.468;2022-12-11T10:49:56;1.80;99.90
29725;DHT22;16636;48.394;15.468;2022-12-11T10:52:30;1.80;99.90
29725;DHT22;16636;48.394;15.468;2022-12-11T10:57:31;1.80;99.90
29725;DHT22;16636;48.394;15.468;2022-12-11T10:59:59;1.80;99.90
29725;DHT22;16636;48.394;15.468;2022-12-11T11:02:37;1.80;99.90
29725;DHT22;16636;48.394;15.468;2022-12-11T11:05:35;1.90;99.90
29725;DHT22;16636;48.394;15.468;2022-12-11T11:08:21;2.00;99.90
29725;DHT22;16636;48.394;15.468;2022-12-11T11:10:58;2.10;99.90
29725;DHT22;16636;48.394;15.468;2022-12-11T11:13:30;2.20;99.90
29725;DHT22;16636;48.394;15.468;2022-12-11T11:16:04;2.10;99.90
29725;DHT22;16636;48.394;15.468;2022-12-11T11:18:32;2.20;99.90
29725;DHT22;16636;48.394;15.468;2022-12-11T11:20:59;2.20;99.90
29725;DHT22;16636;48.394;15.468;2022-12-11T11:23:26;2.30;99.90
29725;DHT22;16636;48.394;15.468;2022-12-11T11:26:00;2.30;99.90
29725;DHT22;16636;48.394;15.468;2022-12-11T11:28:36;2.20;99.90
29725;DHT22;16636;48.394;15.468;2022-12-11T11:33:32;2.10;99.90
29725;DHT22;16636;48.394;15.468;2022-12-11T11:36:05;2.30;99.90
29725;DHT22;16636;48.394;15.468;2022-12-11T11:38:47;2.60;99.90
29725;DHT22;16636;48.394;15.468;2022-12-11T11:44:10;2.80;99.90
29725;DHT22;16636;48.394;15.468;2022-12-11T11:46:43;2.70;99.90
29725;DHT22;16636;48.394;15.468;2022-12-11T11:54:42;2.30;99.90
29725;DHT22;16636;48.394;15.468;2022-12-11T11:57:19;2.20;99.90
29725;DHT22;16636;48.394;15.468;2022-12-11T12:00:00;2.20;99.90
29725;DHT22;16636;48.394;15.468;2022-12-11T12:02:39;2.10;99.90
29725;DHT22;16636;48.394;15.468;2022-12-11T12:05:11;2.20;99.90
29725;DHT22;16636;48.394;15.468;2022-12-11T12:07:51;2.50;99.90
29725;DHT22;16636;48.394;15.468;2022-12-11T12:15:42;2.30;99.90
29725;DHT22;16636;48.394;15.468;2022-12-11T12:21:11;2.30;99.90
29725;DHT22;16636;48.394;15.468;2022-12-11T12:26:34;2.20;99.90
29725;DHT22;16636;48.394;15.468;2022-12-11T12:29:18;2.20;99.90
29725;DHT22;16636;48.394;15.468;2022-12-11T12:32:08;2.10;99.90
29725;DHT22;16636;48.394;15.468;2022-12-11T12:35:05;2.10;99.90
29725;DHT22;16636;48.394;15.468;2022-12-11T12:38:02;2.10;99.90
29725;DHT22;16636;48.394;15.468;2022-12-11T12:40:39;2.00;99.90
29725;DHT22;16636;48.394;15.468;2022-12-11T12:48:39;1.90;99.90
29725;DHT22;16636;48.394;15.468;2022-12-11T12:51:06;1.80;99.90
29725;DHT22;16636;48.394;15.468;2022-12-11T12:53:33;1.80;99.90
29725;DHT22;16636;48.394;15.468;2022-12-11T12:56:02;1.80;99.90
29725;DHT22;16636;48.394;15.468;2022-12-11T13:01:18;1.70;99.90
29725;DHT22;16636;48.394;15.468;2022-12-11T13:03:58;1.70;99.90
29725;DHT22;16636;48.394;15.468;2022-12-11T13:06:34;1.70;99.90
29725;DHT22;16636;48.394;15.468;2022-12-11T13:09:21;1.70;99.90
29725;DHT22;16636;48.394;15.468;2022-12-11T13:11:51;1.60;99.90
29725;DHT22;16636;48.394;15.468;2022-12-11T13:16:47;1.50;99.90
29725;DHT22;16636;48.394;15.468;2022-12-11T13:19:25;1.50;99.90
29725;DHT22;16636;48.394;15.468;2022-12-11T13:25:00;1.50;99.90
29725;DHT22;16636;48.394;15.468;2022-12-11T13:35:17;1.40;99.90
29725;DHT22;16636;48.394;15.468;2022-12-11T13:37:45;1.40;99.90
29725;DHT22;16636;48.394;15.468;2022-12-11T13:40:23;1.40;99.90
29725;DHT22;16636;48.394;15.468;2022-12-11T13:42:54;1.40;99.90
29725;DHT22;16636;48.394;15.468;2022-12-11T13:45:26;1.40;99.90
29725;DHT22;16636;48.394;15.468;2022-12-11T13:47:57;1.40;99.90
29725;DHT22;16636;48.394;15.468;2022-12-11T13:50:28;1.40;99.90
29725;DHT22;16636;48.394;15.468;2022-12-11T13:52:58;1.30;99.90
29725;DHT22;16636;48.394;15.468;2022-12-11T13:55:28;1.30;99.90
29725;DHT22;16636;48.394;15.468;2022-12-11T13:57:55;1.30;99.90
29725;DHT22;16636;48.394;15.468;2022-12-11T14:00:29;1.20;99.90
29725;DHT22;16636;48.394;15.468;2022-12-11T14:03:00;1.20;99.90
29725;DHT22;16636;48.394;15.468;2022-12-11T14:05:27;1.20;99.90
29725;DHT22;16636;48.394;15.468;2022-12-11T14:07:56;1.20;99.90
29725;DHT22;16636;48.394;15.468;2022-12-11T14:10:25;1.20;99.90
29725;DHT22;16636;48.394;15.468;2022-12-11T14:13:06;1.20;99.90
29725;DHT22;16636;48.394;15.468;2022-12-11T14:15:35;1.20;99.90
29725;DHT22;16636;48.394;15.468;2022-12-11T14:18:02;1.20;99.90
29725;DHT22;16636;48.394;15.468;2022-12-11T14:20:32;1.20;99.90
29725;DHT22;16636;48.394;15.468;2022-12-11T14:23:16;1.10;99.90
29725;DHT22;16636;48.394;15.468;2022-12-11T14:25:55;1.10;99.90
29725;DHT22;16636;48.394;15.468;2022-12-11T14:28:22;1.10;99.90
29725;DHT22;16636;48.394;15.468;2022-12-11T14:30:55;1.10;99.90
29725;DHT22;16636;48.394;15.468;2022-12-11T14:33:36;1.10;99.90
29725;DHT22;16636;48.394;15.468;2022-12-11T14:36:03;1.10;99.90
29725;DHT22;16636;48.394;15.468;2022-12-11T14:38:47;1.10;99.90
29725;DHT22;16636;48.394;15.468;2022-12-11T14:41:35;1.10;99.90
29725;DHT22;16636;48.394;15.468;2022-12-11T14:44:04;1.20;99.90
29725;DHT22;16636;48.394;15.468;2022-12-11T14:46:40;1.20;99.90
29725;DHT22;16636;48.394;15.468;2022-12-11T14:51:42;1.10;99.90
29725;DHT22;16636;48.394;15.468;2022-12-11T14:54:37;1.10;99.90
29725;DHT22;16636;48.394;15.468;2022-12-11T14:57:05;1.10;99.90
29725;DHT22;16636;48.394;15.468;2022-12-11T14:59:40;1.10;99.90
29725;DHT22;16636;48.394;15.468;2022-12-11T15:02:28;1.10;99.90
29725;DHT22;16636;48.394;15.468;2022-12-11T15:05:18;1.10;99.90
29725;DHT22;16636;48.394;15.468;2022-12-11T15:08:02;1.10;99.90
29725;DHT22;16636;48.394;15.468;2022-12-11T15:13:31;1.10;99.90
29725;DHT22;16636;48.394;15.468;2022-12-11T15:15:58;1.10;99.90
29725;DHT22;16636;48.394;15.468;2022-12-11T15:18:34;1.10;99.90
29725;DHT22;16636;48.394;15.468;2022-12-11T15:21:03;1.10;99.90
29725;DHT22;16636;48.394;15.468;2022-12-11T15:26:16;1.00;99.90
29725;DHT22;16636;48.394;15.468;2022-12-11T15:28:42;1.10;99.90
29725;DHT22;16636;48.394;15.468;2022-12-11T15:31:29;1.00;99.90
29725;DHT22;16636;48.394;15.468;2022-12-11T15:33:55;1.10;99.90
29725;DHT22;16636;48.394;15.468;2022-12-11T15:36:33;1.10;99.90
29725;DHT22;16636;48.394;15.468;2022-12-11T15:39:03;1.10;99.90
29725;DHT22;16636;48.394;15.468;2022-12-11T15:41:33;1.10;99.90
29725;DHT22;16636;48.394;15.468;2022-12-11T15:44:03;1.00;99.90
29725;DHT22;16636;48.394;15.468;2022-12-11T15:46:34;1.00;99.90
29725;DHT22;16636;48.394;15.468;2022-12-11T15:49:01;1.00;99.90
29725;DHT22;16636;48.394;15.468;2022-12-11T15:51:26;1.00;99.90
29725;DHT22;16636;48.394;15.468;2022-12-11T15:53:53;1.00;99.90
29725;DHT22;16636;48.394;15.468;2022-12-11T15:56:19;1.00;99.90
29725;DHT22;16636;48.394;15.468;2022-12-11T15:58:46;1.00;99.90
29725;DHT22;16636;48.394;15.468;2022-12-11T16:01:13;1.00;99.90
29725;DHT22;16636;48.394;15.468;2022-12-11T16:03:39;0.90;99.90
29725;DHT22;16636;48.394;15.468;2022-12-11T16:06:05;0.90;99.90
29725;DHT22;16636;48.394;15.468;2022-12-11T16:08:31;0.90;99.90
29725;DHT22;16636;48.394;15.468;2022-12-11T16:10:57;0.90;99.90
29725;DHT22;16636;48.394;15.468;2022-12-11T16:13:23;0.90;99.90
29725;DHT22;16636;48.394;15.468;2022-12-11T16:15:52;0.90;99.90
29725;DHT22;16636;48.394;15.468;2022-12-11T16:18:22;0.80;99.90
29725;DHT22;16636;48.394;15.468;2022-12-11T16:20:49;0.80;99.90
29725;DHT22;16636;48.394;15.468;2022-12-11T16:23:16;0.90;99.90
29725;DHT22;16636;48.394;15.468;2022-12-11T16:25:44;0.90;99.90
29725;DHT22;16636;48.394;15.468;2022-12-11T16:28:12;0.90;99.90
29725;DHT22;16636;48.394;15.468;2022-12-11T16:30:39;0.90;99.90
29725;DHT22;16636;48.394;15.468;2022-12-11T16:33:06;0.90;99.90
29725;DHT22;16636;48.394;15.468;2022-12-11T16:35:32;0.90;99.90
29725;DHT22;16636;48.394;15.468;2022-12-11T16:37:58;1.00;99.90
29725;DHT22;16636;48.394;15.468;2022-12-11T16:40:24;0.90;99.90
29725;DHT22;16636;48.394;15.468;2022-12-11T16:42:51;0.90;99.90
29725;DHT22;16636;48.394;15.468;2022-12-11T16:45:22;0.90;99.90
29725;DHT22;16636;48.394;15.468;2022-12-11T16:47:48;1.00;99.90
29725;DHT22;16636;48.394;15.468;2022-12-11T16:50:14;1.00;99.90
29725;DHT22;16636;48.394;15.468;2022-12-11T16:52:41;0.90;99.90
29725;DHT22;16636;48.394;15.468;2022-12-11T16:55:09;0.90;99.90
29725;DHT22;16636;48.394;15.468;2022-12-11T16:57:36;0.90;99.90
29725;DHT22;16636;48.394;15.468;2022-12-11T17:00:07;0.90;99.90
29725;DHT22;16636;48.394;15.468;2022-12-11T17:02:34;0.90;99.90
29725;DHT22;16636;48.394;15.468;2022-12-11T17:05:00;0.90;99.90
29725;DHT22;16636;48.394;15.468;2022-12-11T17:07:26;0.90;99.90
29725;DHT22;16636;48.394;15.468;2022-12-11T17:09:52;0.80;99.90
29725;DHT22;16636;48.394;15.468;2022-12-11T17:12:18;0.80;99.90
29725;DHT22;16636;48.394;15.468;2022-12-11T17:14:50;0.80;99.90
29725;DHT22;16636;48.394;15.468;2022-12-11T17:17:16;0.80;99.90
29725;DHT22;16636;48.394;15.468;2022-12-11T17:19:42;0.80;99.90
29725;DHT22;16636;48.394;15.468;2022-12-11T17:22:08;0.80;99.90